Terminal Aerodrome Forecast
Issued by NWS Cleveland, OH

Home | Current Version | Previous Version | Text Only | Print | Product List | Glossary Off
Versions: 1 2 3 4 5 6 7 8 9 10 11 12 13 14 15 16

581
FTUS41 KCLE 250530
TAFTOL
TAF
KTOL 250530Z 2506/2606 22006KT P6SM SCT250
     FM251700 21010KT P6SM SCT050 BKN100
     FM252300 17004KT P6SM FEW100 SCT200=

USA.gov is the U.S. government's official web portal to all federal, state and local government web resources and services.